FAB1322 SBYS-SBYS

Flight info

Callsign FAB1322
Flight time 1h 2m
Altitude FL070
Route
Aircraft TUCA/L-S/N

Departure

Time 2026-04-23 02:40
Airport Campo Fontenelle (SBYS)

Arrival

Time 2026-04-23 03:43
Airport Campo Fontenelle (SBYS)
Time Latitude Longitude Altitude Speed Heading
2026-04-23 02:05 -21.98127 -47.33947 1973 ft 0 kts 267°
2026-04-23 02:21 -21.98128 -47.33953 1973 ft 0 kts 267°
2026-04-23 02:23 -21.98128 -47.33954 1973 ft 0 kts 267°
2026-04-23 02:24 -21.98128 -47.33960 1973 ft 3 kts 270°
2026-04-23 02:25 -21.98119 -47.33970 1973 ft 5 kts 326°
2026-04-23 02:25 -21.98058 -47.33976 1973 ft 11 kts
2026-04-23 02:25 -21.97984 -47.33976 1973 ft 9 kts
2026-04-23 02:25 -21.97969 -47.33997 1973 ft 3 kts 243°
2026-04-23 02:26 -21.98024 -47.34006 1973 ft 9 kts 179°
2026-04-23 02:26 -21.98110 -47.34005 1973 ft 11 kts 179°
2026-04-23 02:26 -21.98181 -47.34005 1973 ft 11 kts 179°
2026-04-23 02:26 -21.98250 -47.34005 1973 ft 11 kts 179°
2026-04-23 02:27 -21.98313 -47.34005 1973 ft 8 kts 178°
2026-04-23 02:27 -21.98410 -47.34005 1973 ft 12 kts 180°
2026-04-23 02:27 -21.98530 -47.34003 1973 ft 17 kts 181°
2026-04-23 02:27 -21.98667 -47.34003 1973 ft 21 kts 179°
2026-04-23 02:28 -21.98810 -47.34002 1973 ft 18 kts 179°
2026-04-23 02:28 -21.98948 -47.34003 1973 ft 21 kts 180°
2026-04-23 02:28 -21.99085 -47.33995 1973 ft 20 kts 183°
2026-04-23 02:28 -21.99195 -47.34002 1973 ft 16 kts 180°
2026-04-23 02:29 -21.99320 -47.34001 1973 ft 10 kts 184°
2026-04-23 02:29 -21.99345 -47.34020 1973 ft 0 kts 251°
2026-04-23 02:34 -21.99346 -47.34051 1973 ft 8 kts 272°
2026-04-23 02:35 -21.99336 -47.34110 1973 ft 7 kts 308°
2026-04-23 02:35 -21.99300 -47.34121 1973 ft 1 kts
2026-04-23 02:35 -21.99282 -47.34111 1973 ft 4 kts 17°
2026-04-23 02:36 -21.99277 -47.34110 1973 ft 0 kts
2026-04-23 02:36 -21.99272 -47.34110 1973 ft 5 kts
2026-04-23 02:36 -21.99255 -47.34109 1973 ft 1 kts
2026-04-23 02:36 -21.99270 -47.34110 1973 ft 3 kts
2026-04-23 02:37 -21.99277 -47.34110 1973 ft 0 kts
2026-04-23 02:37 -21.99273 -47.34110 1973 ft 0 kts
2026-04-23 02:37 -21.99282 -47.34111 1973 ft 0 kts
2026-04-23 02:37 -21.99281 -47.34111 1973 ft 1 kts
2026-04-23 02:38 -21.99279 -47.34110 1973 ft 0 kts
2026-04-23 02:39 -21.99278 -47.34110 1973 ft 0 kts
2026-04-23 02:39 -21.99258 -47.34110 1973 ft 17 kts
2026-04-23 02:39 -21.98777 -47.34105 1993 ft 123 kts 358°
2026-04-23 02:40 -21.97788 -47.34093 2157 ft 151 kts
2026-04-23 02:40 -21.96758 -47.34076 2331 ft 145 kts
2026-04-23 02:40 -21.95791 -47.34045 2516 ft 141 kts 358°
2026-04-23 02:40 -21.94735 -47.34119 2795 ft 163 kts 348°
2026-04-23 02:41 -21.93598 -47.34439 3141 ft 176 kts 336°
2026-04-23 02:41 -21.92554 -47.35169 3469 ft 181 kts 316°
2026-04-23 02:41 -21.91755 -47.36188 3786 ft 180 kts 308°
2026-04-23 02:41 -21.90987 -47.37252 4139 ft 181 kts 307°
2026-04-23 02:42 -21.90254 -47.38362 4429 ft 184 kts 306°
2026-04-23 02:42 -21.89502 -47.39507 4603 ft 191 kts 304°
2026-04-23 02:42 -21.88769 -47.40699 4839 ft 192 kts 304°
2026-04-23 02:42 -21.88023 -47.41874 5117 ft 192 kts 303°
2026-04-23 02:43 -21.87302 -47.43070 5443 ft 189 kts 303°
2026-04-23 02:43 -21.86623 -47.44264 5833 ft 184 kts 301°
2026-04-23 02:43 -21.86007 -47.45429 6318 ft 173 kts 300°
2026-04-23 02:43 -21.85449 -47.46451 6728 ft 160 kts 301°
2026-04-23 02:44 -21.84910 -47.47441 7061 ft 148 kts 301°
2026-04-23 02:44 -21.84400 -47.48387 7306 ft 143 kts 301°
2026-04-23 02:44 -21.83912 -47.49311 7483 ft 145 kts 300°
2026-04-23 02:44 -21.83438 -47.50276 7608 ft 148 kts 295°
2026-04-23 02:45 -21.83154 -47.51282 8000 ft 135 kts 274°
2026-04-23 02:45 -21.83418 -47.52228 8573 ft 129 kts 241°
2026-04-23 02:45 -21.83932 -47.53061 8887 ft 137 kts 233°
2026-04-23 02:45 -21.84538 -47.53855 9181 ft 142 kts 227°
2026-04-23 02:46 -21.85412 -47.54414 9683 ft 155 kts 205°
2026-04-23 02:46 -21.86469 -47.54911 9931 ft 179 kts 201°
2026-04-23 02:46 -21.87703 -47.55447 10029 ft 200 kts 202°
2026-04-23 02:46 -21.88995 -47.56033 10318 ft 202 kts 202°
2026-04-23 02:47 -21.90246 -47.56633 10528 ft 200 kts 206°
2026-04-23 02:47 -21.91237 -47.57176 10751 ft 191 kts 207°
2026-04-23 02:47 -21.92274 -47.57734 10977 ft 177 kts 207°
2026-04-23 02:47 -21.93181 -47.58198 11226 ft 162 kts 204°
2026-04-23 02:48 -21.94225 -47.58622 11462 ft 163 kts 201°
2026-04-23 02:48 -21.95296 -47.59031 11697 ft 161 kts 200°
2026-04-23 02:48 -21.96342 -47.59426 11957 ft 158 kts 199°
2026-04-23 02:48 -21.97400 -47.59769 12195 ft 161 kts 195°
2026-04-23 02:49 -21.98506 -47.59997 12450 ft 164 kts 187°
2026-04-23 02:49 -21.99649 -47.60110 12704 ft 166 kts 184°
2026-04-23 02:49 -22.00783 -47.60189 12961 ft 161 kts 184°
2026-04-23 02:49 -22.01859 -47.60268 13201 ft 151 kts 184°
2026-04-23 02:50 -22.02913 -47.60341 13438 ft 154 kts 184°
2026-04-23 02:50 -22.04013 -47.60408 13697 ft 162 kts 183°
2026-04-23 02:50 -22.05145 -47.60471 13884 ft 165 kts 183°
2026-04-23 02:50 -22.06278 -47.60542 13992 ft 161 kts 184°
2026-04-23 02:51 -22.07409 -47.60636 14009 ft 167 kts 185°
2026-04-23 02:51 -22.08596 -47.60738 13999 ft 176 kts 185°
2026-04-23 02:51 -22.09837 -47.60839 13995 ft 182 kts 184°
2026-04-23 02:51 -22.11112 -47.60942 14030 ft 183 kts 184°
2026-04-23 02:52 -22.12394 -47.61046 13957 ft 187 kts 184°
2026-04-23 02:52 -22.13689 -47.61166 13930 ft 186 kts 185°
2026-04-23 02:52 -22.14963 -47.61279 13982 ft 182 kts 185°
2026-04-23 02:52 -22.16219 -47.61417 13968 ft 182 kts 190°
2026-04-23 02:53 -22.17085 -47.62094 14025 ft 173 kts 237°
2026-04-23 02:53 -22.17258 -47.63224 14048 ft 171 kts 274°
2026-04-23 02:53 -22.16763 -47.64425 13589 ft 193 kts 319°
2026-04-23 02:53 -22.15494 -47.64836 13330 ft 196 kts
2026-04-23 02:54 -22.14235 -47.64752 13710 ft 169 kts
2026-04-23 02:54 -22.13091 -47.64766 13924 ft 162 kts 354°
2026-04-23 02:54 -22.11978 -47.65000 14141 ft 170 kts 345°
2026-04-23 02:54 -22.10788 -47.65397 14186 ft 190 kts 341°
2026-04-23 02:55 -22.09475 -47.65889 14041 ft 212 kts 340°
2026-04-23 02:55 -22.08054 -47.66475 13972 ft 225 kts 339°
2026-04-23 02:55 -22.06588 -47.67129 13963 ft 229 kts 335°
2026-04-23 02:55 -22.05428 -47.68182 14066 ft 219 kts 298°
2026-04-23 02:56 -22.05448 -47.69752 13474 ft 230 kts 245°
2026-04-23 02:56 -22.06771 -47.70652 13049 ft 238 kts 187°
2026-04-23 02:56 -22.08360 -47.70295 12866 ft 236 kts 153°
2026-04-23 02:56 -22.09719 -47.69440 12994 ft 220 kts 149°
2026-04-23 02:57 -22.11017 -47.68566 12974 ft 218 kts 146°
2026-04-23 02:57 -22.12274 -47.67705 12953 ft 209 kts 147°
2026-04-23 02:57 -22.13498 -47.66863 12947 ft 212 kts 148°
2026-04-23 02:57 -22.14798 -47.66096 12970 ft 214 kts 152°
2026-04-23 02:58 -22.16094 -47.65387 12986 ft 205 kts 153°
2026-04-23 02:58 -22.17325 -47.64742 12986 ft 195 kts 155°
2026-04-23 02:58 -22.18519 -47.64136 12985 ft 185 kts 154°
2026-04-23 02:58 -22.19676 -47.63565 12976 ft 184 kts 155°
2026-04-23 02:59 -22.20835 -47.62991 12962 ft 185 kts 155°
2026-04-23 02:59 -22.22013 -47.62408 12962 ft 189 kts 155°
2026-04-23 02:59 -22.23137 -47.61681 13042 ft 188 kts 136°
2026-04-23 02:59 -22.23807 -47.60481 13019 ft 193 kts 105°
2026-04-23 03:00 -22.23896 -47.58957 12665 ft 215 kts 87°
2026-04-23 03:00 -22.23838 -47.57344 12661 ft 214 kts 91°
2026-04-23 03:00 -22.24129 -47.55788 12672 ft 215 kts 112°
2026-04-23 03:00 -22.25035 -47.54504 12563 ft 224 kts 144°
2026-04-23 03:01 -22.26471 -47.54071 12527 ft 209 kts 181°
2026-04-23 03:01 -22.27789 -47.54252 12596 ft 192 kts 179°
2026-04-23 03:01 -22.29059 -47.54058 12699 ft 177 kts 164°
2026-04-23 03:01 -22.30144 -47.53676 12679 ft 173 kts 160°
2026-04-23 03:02 -22.31169 -47.53191 12994 ft 159 kts 153°
2026-04-23 03:02 -22.32175 -47.52683 13173 ft 160 kts 158°
2026-04-23 03:02 -22.33251 -47.52416 13479 ft 157 kts 177°
2026-04-23 03:02 -22.34324 -47.52589 13737 ft 158 kts 200°
2026-04-23 03:03 -22.35200 -47.53235 13912 ft 152 kts 228°
2026-04-23 03:03 -22.35702 -47.54179 13966 ft 145 kts 246°
2026-04-23 03:03 -22.35961 -47.55227 13952 ft 146 kts 270°
2026-04-23 03:03 -22.35709 -47.56290 13950 ft 150 kts 298°
2026-04-23 03:04 -22.34971 -47.57090 13946 ft 157 kts 328°
2026-04-23 03:04 -22.33947 -47.57595 13924 ft 169 kts 341°
2026-04-23 03:04 -22.32762 -47.57931 13948 ft 184 kts 347°
2026-04-23 03:04 -22.31518 -47.58232 13967 ft 193 kts 348°
2026-04-23 03:05 -22.30287 -47.58496 13971 ft 193 kts 348°
2026-04-23 03:05 -22.29112 -47.58802 13978 ft 189 kts 347°
2026-04-23 03:05 -22.27916 -47.59106 13960 ft 185 kts 346°
2026-04-23 03:05 -22.26693 -47.59433 13879 ft 183 kts 346°
2026-04-23 03:06 -22.25454 -47.59773 13543 ft 193 kts 345°
2026-04-23 03:06 -22.24087 -47.60210 12989 ft 211 kts 342°
2026-04-23 03:06 -22.22798 -47.60577 13038 ft 197 kts 345°
2026-04-23 03:06 -22.21547 -47.60950 13069 ft 187 kts 345°
2026-04-23 03:07 -22.20367 -47.61420 13126 ft 176 kts 327°
2026-04-23 03:07 -22.19645 -47.62452 13142 ft 177 kts 291°
2026-04-23 03:07 -22.19578 -47.63785 13147 ft 181 kts 262°
2026-04-23 03:07 -22.20088 -47.65037 13153 ft 185 kts 234°
2026-04-23 03:08 -22.21046 -47.65850 13226 ft 180 kts 203°
2026-04-23 03:08 -22.22227 -47.65937 13248 ft 175 kts 168°
2026-04-23 03:08 -22.23238 -47.65280 13273 ft 169 kts 133°
2026-04-23 03:08 -22.23766 -47.64193 13352 ft 163 kts 106°
2026-04-23 03:09 -22.23797 -47.62965 13374 ft 166 kts 78°
2026-04-23 03:09 -22.23273 -47.61834 13333 ft 172 kts 50°
2026-04-23 03:09 -22.22335 -47.61052 13325 ft 179 kts 24°
2026-04-23 03:09 -22.21041 -47.60977 13116 ft 194 kts 341°
2026-04-23 03:10 -22.19977 -47.61893 13233 ft 208 kts 310°
2026-04-23 03:10 -22.19067 -47.63145 13242 ft 220 kts 308°
2026-04-23 03:10 -22.18281 -47.64224 13248 ft 218 kts 309°
2026-04-23 03:10 -22.17533 -47.65286 13267 ft 211 kts 306°
2026-04-23 03:11 -22.17964 -47.66238 13059 ft 207 kts 187°
2026-04-23 03:11 -22.19213 -47.66751 13510 ft 183 kts 210°
2026-04-23 03:11 -22.20327 -47.67421 13796 ft 181 kts 205°
2026-04-23 03:11 -22.21448 -47.67952 13963 ft 182 kts 201°
2026-04-23 03:12 -22.22676 -47.67903 13954 ft 182 kts 162°
2026-04-23 03:12 -22.23748 -47.67162 13895 ft 192 kts 139°
2026-04-23 03:12 -22.24664 -47.66055 13862 ft 203 kts 129°
2026-04-23 03:12 -22.25561 -47.64858 13896 ft 209 kts 128°
2026-04-23 03:13 -22.26473 -47.63622 13931 ft 212 kts 128°
2026-04-23 03:13 -22.27390 -47.62357 13943 ft 215 kts 128°
2026-04-23 03:13 -22.28315 -47.61094 13969 ft 213 kts 128°
2026-04-23 03:13 -22.29221 -47.59855 13970 ft 207 kts 128°
2026-04-23 03:14 -22.30105 -47.58653 13972 ft 204 kts 128°
2026-04-23 03:14 -22.30985 -47.57458 13956 ft 204 kts 128°
2026-04-23 03:14 -22.31874 -47.56255 13945 ft 207 kts 128°
2026-04-23 03:14 -22.32766 -47.55037 13961 ft 207 kts 128°
2026-04-23 03:15 -22.33660 -47.53811 13968 ft 208 kts 128°
2026-04-23 03:15 -22.34556 -47.52584 13973 ft 208 kts 128°
2026-04-23 03:15 -22.35445 -47.51370 13992 ft 206 kts 128°
2026-04-23 03:15 -22.36349 -47.50164 13959 ft 210 kts 129°
2026-04-23 03:16 -22.37285 -47.48930 13900 ft 216 kts 129°
2026-04-23 03:16 -22.38250 -47.47663 13843 ft 222 kts 129°
2026-04-23 03:16 -22.39567 -47.44694 13941 ft 227 kts 89°
2026-04-23 03:17 -22.39159 -47.43053 13915 ft 233 kts 61°
2026-04-23 03:17 -22.38138 -47.41694 13907 ft 234 kts 40°
2026-04-23 03:17 -22.36749 -47.40950 13976 ft 229 kts 12°
2026-04-23 03:17 -22.35459 -47.41017 13971 ft 224 kts 344°
2026-04-23 03:18 -22.34365 -47.41685 13971 ft 218 kts 322°
2026-04-23 03:18 -22.33436 -47.42527 13980 ft 211 kts 320°
2026-04-23 03:18 -22.32578 -47.43382 13940 ft 205 kts 315°
2026-04-23 03:18 -22.31706 -47.44323 13998 ft 194 kts 316°
2026-04-23 03:19 -22.30755 -47.45333 13548 ft 197 kts 315°
2026-04-23 03:19 -22.29731 -47.46454 12808 ft 228 kts 315°
2026-04-23 03:19 -22.28921 -47.47326 14757 ft 40 kts 356°
2026-04-23 03:19 -22.28597 -47.46816 14776 ft 159 kts 79°
2026-04-23 03:20 -22.28963 -47.45383 13256 ft 236 kts 118°
2026-04-23 03:20 -22.29872 -47.44105 13086 ft 217 kts 172°
2026-04-23 03:20 -22.31348 -47.44267 12720 ft 218 kts 189°
2026-04-23 03:20 -22.32449 -47.44765 12909 ft 190 kts 229°
2026-04-23 03:21 -22.32913 -47.46090 12668 ft 201 kts 271°
2026-04-23 03:21 -22.32412 -47.47480 12649 ft 201 kts 317°
2026-04-23 03:21 -22.31168 -47.48077 12615 ft 199 kts 353°
2026-04-23 03:21 -22.29832 -47.48059 12762 ft 189 kts
2026-04-23 03:22 -22.28524 -47.48016 12743 ft 193 kts
2026-04-23 03:22 -22.27354 -47.47953 12708 ft 189 kts
2026-04-23 03:22 -22.26079 -47.47893 12752 ft 178 kts
2026-04-23 03:22 -22.24880 -47.47850 12848 ft 171 kts
2026-04-23 03:23 -22.23695 -47.47902 12898 ft 171 kts 357°
2026-04-23 03:23 -22.22506 -47.47948 12949 ft 171 kts 358°
2026-04-23 03:23 -22.21311 -47.48005 12966 ft 173 kts 357°
2026-04-23 03:23 -22.20112 -47.48053 12998 ft 174 kts 358°
2026-04-23 03:24 -22.18906 -47.48088 13024 ft 175 kts 358°
2026-04-23 03:24 -22.17664 -47.48078 12918 ft 185 kts
2026-04-23 03:24 -22.16304 -47.48067 12787 ft 216 kts 359°
2026-04-23 03:24 -22.14920 -47.48057 12798 ft 224 kts
2026-04-23 03:25 -22.13472 -47.48037 12070 ft 244 kts
2026-04-23 03:25 -22.11778 -47.47993 11280 ft 245 kts
2026-04-23 03:25 -22.11255 -47.47936 13405 ft 130 kts 202°
2026-04-23 03:25 -22.10829 -47.47610 10737 ft 243 kts 30°
2026-04-23 03:26 -22.09575 -47.47193 11177 ft 214 kts
2026-04-23 03:26 -22.08550 -47.46603 10866 ft 206 kts 20°
2026-04-23 03:26 -22.07226 -47.46199 10921 ft 200 kts 16°
2026-04-23 03:26 -22.06040 -47.45817 10781 ft 204 kts 21°
2026-04-23 03:27 -22.04962 -47.45395 10701 ft 198 kts 19°
2026-04-23 03:27 -22.03775 -47.44818 10867 ft 181 kts 27°
2026-04-23 03:27 -22.02633 -47.44178 10715 ft 190 kts 26°
2026-04-23 03:27 -22.01412 -47.43550 10508 ft 200 kts 24°
2026-04-23 03:28 -22.00124 -47.42933 10365 ft 203 kts 23°
2026-04-23 03:28 -21.98820 -47.42320 10209 ft 207 kts 22°
2026-04-23 03:28 -21.97535 -47.41735 10084 ft 203 kts 22°
2026-04-23 03:28 -21.96276 -47.41168 9990 ft 196 kts 22°
2026-04-23 03:29 -21.95047 -47.40624 9975 ft 188 kts 22°
2026-04-23 03:29 -21.93853 -47.40108 9966 ft 183 kts 20°
2026-04-23 03:29 -21.92661 -47.39644 9954 ft 182 kts 19°
2026-04-23 03:29 -21.91466 -47.39214 9955 ft 182 kts 18°
2026-04-23 03:30 -21.90252 -47.38810 9904 ft 186 kts 16°
2026-04-23 03:30 -21.89007 -47.38421 9931 ft 187 kts 15°
2026-04-23 03:30 -21.87717 -47.38300 9951 ft 188 kts 348°
2026-04-23 03:30 -21.86618 -47.39077 9810 ft 199 kts 306°
2026-04-23 03:31 -21.86184 -47.40321 9700 ft 201 kts 279°
2026-04-23 03:31 -21.86176 -47.41608 9517 ft 202 kts 265°
2026-04-23 03:31 -21.86470 -47.42878 9362 ft 196 kts 250°
2026-04-23 03:31 -21.87042 -47.44037 9110 ft 191 kts 231°
2026-04-23 03:32 -21.88068 -47.44827 8884 ft 183 kts 201°
2026-04-23 03:32 -21.89312 -47.44969 8601 ft 182 kts 178°
2026-04-23 03:32 -21.90572 -47.44902 8364 ft 187 kts 176°
2026-04-23 03:32 -21.91905 -47.44824 8089 ft 195 kts 176°
2026-04-23 03:33 -21.93272 -47.44720 7840 ft 199 kts 175°
2026-04-23 03:33 -21.94657 -47.44594 7597 ft 201 kts 174°
2026-04-23 03:33 -21.96035 -47.44434 7356 ft 195 kts 173°
2026-04-23 03:33 -21.97293 -47.44287 7112 ft 188 kts 173°
2026-04-23 03:34 -21.98551 -47.44142 6873 ft 181 kts 174°
2026-04-23 03:34 -21.99780 -47.43991 6626 ft 176 kts 174°
2026-04-23 03:34 -22.00986 -47.43840 6377 ft 175 kts 173°
2026-04-23 03:34 -22.02211 -47.43699 6138 ft 181 kts 174°
2026-04-23 03:35 -22.03476 -47.43569 5878 ft 184 kts 175°
2026-04-23 03:35 -22.04750 -47.43456 5633 ft 183 kts 175°
2026-04-23 03:35 -22.06018 -47.43355 5370 ft 184 kts 176°
2026-04-23 03:35 -22.07272 -47.43258 5132 ft 183 kts 175°
2026-04-23 03:36 -22.08473 -47.43137 4878 ft 179 kts 174°
2026-04-23 03:36 -22.09667 -47.42961 4598 ft 177 kts 169°
2026-04-23 03:36 -22.10739 -47.42552 4282 ft 175 kts 143°
2026-04-23 03:36 -22.11493 -47.41574 4017 ft 168 kts 118°
2026-04-23 03:37 -22.11892 -47.40392 3666 ft 170 kts 102°
2026-04-23 03:37 -22.12030 -47.39157 3512 ft 164 kts 89°
2026-04-23 03:37 -22.11872 -47.37943 3409 ft 166 kts 73°
2026-04-23 03:37 -22.11455 -47.36815 3455 ft 162 kts 65°
2026-04-23 03:38 -22.10933 -47.35703 3422 ft 172 kts 61°
2026-04-23 03:38 -22.10260 -47.34618 3424 ft 177 kts 50°
2026-04-23 03:38 -22.09269 -47.33824 3459 ft 184 kts 23°
2026-04-23 03:38 -22.07951 -47.33721 3517 ft 197 kts 355°
2026-04-23 03:39 -22.06570 -47.33826 3420 ft 200 kts 357°
2026-04-23 03:39 -22.05195 -47.33905 3444 ft 195 kts 356°
2026-04-23 03:39 -22.03941 -47.33995 3489 ft 183 kts 356°
2026-04-23 03:39 -22.02772 -47.34018 3492 ft 175 kts
2026-04-23 03:40 -22.01566 -47.33993 3485 ft 174 kts
2026-04-23 03:40 -22.00349 -47.33962 3476 ft 178 kts
2026-04-23 03:40 -21.99105 -47.33935 3459 ft 180 kts
2026-04-23 03:40 -21.97897 -47.33965 3874 ft 133 kts 334°
2026-04-23 03:41 -21.97347 -47.34854 3869 ft 170 kts 292°
2026-04-23 03:41 -21.97227 -47.36105 3835 ft 168 kts 259°
2026-04-23 03:41 -21.98119 -47.37026 3801 ft 207 kts 196°
2026-04-23 03:41 -21.99478 -47.36761 3405 ft 180 kts 149°
2026-04-23 03:42 -22.00410 -47.36288 3034 ft 149 kts 157°
2026-04-23 03:42 -22.01186 -47.35532 2722 ft 152 kts 129°
2026-04-23 03:42 -22.01394 -47.34493 2470 ft 141 kts 71°
2026-04-23 03:42 -22.00757 -47.34066 2363 ft 98 kts 356°
2026-04-23 03:43 -22.00037 -47.34103 2116 ft 106 kts 358°
2026-04-23 03:43 -21.99341 -47.34126 1973 ft 88 kts 358°
2026-04-23 03:43 -21.98871 -47.34132 1973 ft 49 kts
2026-04-23 03:43 -21.98637 -47.34119 1973 ft 24 kts
2026-04-23 03:44 -21.98495 -47.34115 1973 ft 19 kts
2026-04-23 03:44 -21.98416 -47.34090 1973 ft 9 kts 74°
2026-04-23 03:44 -21.98413 -47.34031 1973 ft 7 kts 90°
2026-04-23 03:44 -21.98377 -47.34004 1973 ft 9 kts
2026-04-23 03:45 -21.98289 -47.34005 1973 ft 14 kts 359°
2026-04-23 03:45 -21.98203 -47.34005 1973 ft 13 kts 360°
2026-04-23 03:45 -21.98158 -47.33997 1973 ft 4 kts 63°
2026-04-23 03:45 -21.98156 -47.33950 1973 ft 5 kts 70°
2026-04-23 03:46 -21.98105 -47.33942 1973 ft 9 kts
2026-04-23 03:46 -21.98066 -47.33941 1973 ft 0 kts
2026-04-23 03:46 -21.98050 -47.33941 1973 ft 5 kts
2026-04-23 03:46 -21.98037 -47.33953 1973 ft 3 kts 280°
2026-04-23 03:47 -21.98036 -47.33958 1973 ft 0 kts 270°
2026-04-23 03:47 -21.98036 -47.33961 1973 ft 0 kts 271°